createdAt,value
2023-10-24T00:01:53.643Z,100740.00
2023-10-24T00:04:30.402Z,100729.00
2023-10-24T00:07:03.777Z,100739.00
2023-10-24T00:09:32.587Z,100732.00
2023-10-24T00:12:01.412Z,100743.00
2023-10-24T00:14:30.219Z,100747.00
2023-10-24T00:16:59.088Z,100745.00
2023-10-24T00:19:29.342Z,100752.00
2023-10-24T00:21:58.622Z,100748.00
2023-10-24T00:24:28.345Z,100750.00
2023-10-24T00:26:58.880Z,100754.00
2023-10-24T00:29:27.788Z,100755.00
2023-10-24T00:31:56.559Z,100747.00
2023-10-24T00:34:25.736Z,100757.00
2023-10-24T00:36:56.006Z,100750.00
2023-10-24T00:39:24.993Z,100761.00
2023-10-24T00:41:53.733Z,100768.00
2023-10-24T00:44:22.531Z,100763.00
2023-10-24T00:46:51.559Z,100770.00
2023-10-24T00:49:20.637Z,100774.00
2023-10-24T00:51:51.006Z,100781.00
2023-10-24T00:54:21.522Z,100781.00
2023-10-24T00:56:53.497Z,100779.00
2023-10-24T00:59:26.378Z,100785.00
2023-10-24T01:01:56.021Z,100783.00
2023-10-24T01:04:27.332Z,100784.00
2023-10-24T01:06:57.163Z,100793.00
2023-10-24T01:09:27.626Z,100790.00
2023-10-24T01:11:56.924Z,100802.00
2023-10-24T01:14:26.909Z,100794.00
2023-10-24T01:16:58.835Z,100799.00
2023-10-24T01:19:29.053Z,100797.00
2023-10-24T01:22:00.476Z,100797.00
2023-10-24T01:24:30.306Z,100798.00
2023-10-24T01:27:03.040Z,100807.00
2023-10-24T01:29:42.566Z,100807.00
2023-10-24T01:32:11.395Z,100813.00
2023-10-24T01:34:42.553Z,100810.00
2023-10-24T01:37:12.905Z,100814.00
2023-10-24T01:39:42.295Z,100816.00
2023-10-24T01:42:11.095Z,100807.00
2023-10-24T01:44:40.004Z,100811.00
2023-10-24T01:47:09.200Z,100817.00
2023-10-24T01:49:38.045Z,100827.00
2023-10-24T01:52:07.346Z,100828.00
2023-10-24T01:54:37.945Z,100824.00
2023-10-24T01:57:07.118Z,100825.00
2023-10-24T01:59:36.457Z,100836.00
2023-10-24T02:02:05.549Z,100843.00
2023-10-24T02:04:34.673Z,100849.00
2023-10-24T02:07:03.990Z,100848.00
2023-10-24T02:09:32.798Z,100849.00
2023-10-24T02:12:04.240Z,100848.00
2023-10-24T02:14:34.200Z,100852.00
2023-10-24T02:17:03.685Z,100860.00
2023-10-24T02:19:32.867Z,100859.00
2023-10-24T02:22:01.525Z,100869.00
2023-10-24T02:24:30.350Z,100864.00
2023-10-24T02:26:59.119Z,100864.00
2023-10-24T02:29:29.192Z,100869.00
2023-10-24T02:31:57.928Z,100853.00
2023-10-24T02:34:26.815Z,100867.00
2023-10-24T02:36:56.008Z,100876.00
2023-10-24T02:39:24.716Z,100866.00
2023-10-24T02:41:54.019Z,100866.00
2023-10-24T02:44:22.925Z,100872.00
2023-10-24T02:46:53.278Z,100869.00
2023-10-24T02:49:23.346Z,100871.00
2023-10-24T02:51:52.211Z,100878.00
2023-10-24T02:54:20.998Z,100883.00
2023-10-24T02:56:49.736Z,100891.00
2023-10-24T02:59:19.228Z,100894.00
2023-10-24T03:01:47.997Z,100891.00
2023-10-24T03:04:18.235Z,100897.00
2023-10-24T03:06:49.351Z,100895.00
2023-10-24T03:09:19.022Z,100903.00
2023-10-24T03:11:47.860Z,100911.00
2023-10-24T03:14:16.651Z,100905.00
2023-10-24T03:16:45.456Z,100910.00
2023-10-24T03:19:14.365Z,100905.00
2023-10-24T03:21:44.610Z,100912.00
2023-10-24T03:24:13.427Z,100925.00
2023-10-24T03:26:42.819Z,100925.00
2023-10-24T03:29:11.670Z,100931.00
2023-10-24T03:31:40.442Z,100927.00
2023-10-24T03:34:09.261Z,100930.00
2023-10-24T03:36:38.653Z,100934.00
2023-10-24T03:39:10.190Z,100940.00
2023-10-24T03:41:39.041Z,100937.00
2023-10-24T03:44:08.722Z,100935.00
2023-10-24T03:46:37.789Z,100937.00
2023-10-24T03:49:06.700Z,100945.00
2023-10-24T03:51:35.475Z,100946.00
2023-10-24T03:54:05.579Z,100941.00
2023-10-24T03:56:36.556Z,100946.00
2023-10-24T03:59:06.200Z,100946.00
2023-10-24T04:01:35.799Z,100950.00
2023-10-24T04:04:05.163Z,100949.00
2023-10-24T04:06:35.493Z,100960.00
2023-10-24T04:09:15.793Z,100956.00
2023-10-24T04:12:01.298Z,100962.00
2023-10-24T04:14:46.070Z,100966.00
2023-10-24T04:17:15.170Z,100967.00
2023-10-24T04:19:44.040Z,100981.00
2023-10-24T04:22:12.741Z,100981.00
2023-10-24T04:24:41.602Z,100982.00
2023-10-24T04:27:12.286Z,100978.00
2023-10-24T04:29:41.067Z,100984.00
2023-10-24T04:32:09.973Z,100988.00
2023-10-24T04:34:38.752Z,100990.00
2023-10-24T04:37:07.795Z,100989.00
2023-10-24T04:39:36.664Z,100995.00
2023-10-24T04:42:06.380Z,101001.00
2023-10-24T04:44:36.522Z,101001.00
2023-10-24T04:47:05.538Z,101002.00
2023-10-24T04:49:34.390Z,101001.00
2023-10-24T04:52:03.155Z,101009.00
2023-10-24T04:54:32.023Z,101003.00
2023-10-24T04:57:01.653Z,101005.00
2023-10-24T04:59:30.551Z,101010.00
2023-10-24T05:02:01.073Z,101012.00
2023-10-24T05:04:30.050Z,101021.00
2023-10-24T05:06:58.857Z,101028.00
2023-10-24T05:09:28.110Z,101027.00
2023-10-24T05:11:57.093Z,101029.00
2023-10-24T05:14:26.109Z,101039.00
2023-10-24T05:16:54.924Z,101033.00
2023-10-24T05:19:25.262Z,101045.00
2023-10-24T05:21:53.997Z,101044.00
2023-10-24T05:24:22.782Z,101046.00
2023-10-24T05:26:51.630Z,101054.00
2023-10-24T05:29:20.468Z,101062.00
2023-10-24T05:31:49.353Z,101059.00
2023-10-24T05:34:18.314Z,101056.00
2023-10-24T05:36:48.784Z,101062.00
2023-10-24T05:39:18.229Z,101070.00
2023-10-24T05:41:47.065Z,101073.00
2023-10-24T05:44:15.948Z,101074.00
2023-10-24T05:46:44.911Z,101076.00
2023-10-24T05:49:13.650Z,101072.00
2023-10-24T05:51:42.511Z,101084.00
2023-10-24T05:54:12.743Z,101092.00
2023-10-24T05:56:41.517Z,101085.00
2023-10-24T05:59:10.300Z,101092.00
2023-10-24T06:01:39.046Z,101085.00
2023-10-24T06:04:08.321Z,101091.00
2023-10-24T06:06:37.066Z,101100.00
2023-10-24T06:09:06.610Z,101100.00
2023-10-24T06:11:36.784Z,101089.00
2023-10-24T06:14:05.609Z,101094.00
2023-10-24T06:16:34.491Z,101108.00
2023-10-24T06:19:03.708Z,101109.00
2023-10-24T06:21:32.640Z,101114.00
2023-10-24T06:24:01.391Z,101115.00
2023-10-24T06:26:30.256Z,101122.00
2023-10-24T06:29:00.534Z,101123.00
2023-10-24T06:31:29.902Z,101117.00
2023-10-24T06:34:00.915Z,101126.00
2023-10-24T06:36:29.745Z,101133.00
2023-10-24T06:38:59.141Z,101124.00
2023-10-24T06:41:27.956Z,101124.00
2023-10-24T06:43:56.729Z,101138.00
2023-10-24T06:46:27.032Z,101134.00
2023-10-24T06:48:55.833Z,101130.00
2023-10-24T06:51:25.343Z,101140.00
2023-10-24T06:53:54.117Z,101143.00
2023-10-24T06:56:23.012Z,101148.00
2023-10-24T06:58:51.768Z,101142.00
2023-10-24T07:01:20.669Z,101140.00
2023-10-24T07:03:51.020Z,101147.00
2023-10-24T07:06:20.029Z,101144.00
2023-10-24T07:08:49.906Z,101151.00
2023-10-24T07:11:18.721Z,101157.00
2023-10-24T07:13:47.617Z,101151.00
2023-10-24T07:16:17.551Z,101152.00
2023-10-24T07:18:46.625Z,101157.00
2023-10-24T07:21:17.488Z,101151.00
2023-10-24T07:23:46.274Z,101164.00
2023-10-24T07:26:14.997Z,101167.00
2023-10-24T07:28:43.778Z,101166.00
2023-10-24T07:31:12.564Z,101162.00
2023-10-24T07:33:42.474Z,101166.00
2023-10-24T07:36:11.839Z,101174.00
2023-10-24T07:38:41.996Z,101176.00
2023-10-24T07:41:12.100Z,101177.00
2023-10-24T07:43:41.020Z,101182.00
2023-10-24T07:46:09.792Z,101183.00
2023-10-24T07:48:38.600Z,101183.00
2023-10-24T07:51:07.964Z,101173.00
2023-10-24T07:53:37.308Z,101188.00
2023-10-24T07:56:08.165Z,101193.00
2023-10-24T07:58:36.962Z,101183.00
2023-10-24T08:01:06.783Z,101186.00
2023-10-24T08:03:35.827Z,101191.00
2023-10-24T08:06:05.584Z,101193.00
2023-10-24T08:08:34.540Z,101194.00
2023-10-24T08:11:04.195Z,101198.00
2023-10-24T08:13:34.490Z,101204.00
2023-10-24T08:16:03.398Z,101202.00
2023-10-24T08:18:32.126Z,101200.00
2023-10-24T08:21:00.885Z,101195.00
2023-10-24T08:23:30.839Z,101210.00
2023-10-24T08:25:59.713Z,101222.00
2023-10-24T08:28:28.951Z,101204.00
2023-10-24T08:30:59.213Z,101212.00
2023-10-24T08:33:29.582Z,101210.00
2023-10-24T08:35:58.531Z,101206.00
2023-10-24T08:38:27.471Z,101217.00
2023-10-24T08:40:56.328Z,101203.00
2023-10-24T08:43:27.505Z,101219.00
2023-10-24T08:45:59.323Z,101228.00
2023-10-24T08:48:28.139Z,101222.00
2023-10-24T08:50:57.505Z,101219.00
2023-10-24T08:53:26.271Z,101221.00
2023-10-24T08:55:59.189Z,101228.00
2023-10-24T08:58:32.422Z,101231.00
2023-10-24T09:01:06.268Z,101227.00
2023-10-24T09:03:37.034Z,101235.00
2023-10-24T09:06:07.416Z,101233.00
2023-10-24T09:08:36.302Z,101234.00
2023-10-24T09:11:05.099Z,101240.00
2023-10-24T09:13:36.262Z,101233.00
2023-10-24T09:16:11.601Z,101226.00
2023-10-24T09:18:42.479Z,101230.00
2023-10-24T09:21:12.400Z,101234.00
2023-10-24T09:23:41.274Z,101243.00
2023-10-24T09:26:12.399Z,101239.00
2023-10-24T09:28:42.605Z,101244.00
2023-10-24T09:31:16.697Z,101253.00
2023-10-24T09:33:49.349Z,101241.00
2023-10-24T09:36:26.490Z,101258.00
2023-10-24T09:38:56.740Z,101249.00
2023-10-24T09:41:28.432Z,101251.00
2023-10-24T09:44:00.778Z,101249.00
2023-10-24T09:46:35.850Z,101243.00
2023-10-24T09:49:06.687Z,101247.00
2023-10-24T09:51:37.826Z,101248.00
2023-10-24T09:54:08.721Z,101248.00
2023-10-24T09:56:37.700Z,101260.00
2023-10-24T09:59:08.333Z,101254.00
2023-10-24T10:01:40.728Z,101252.00
2023-10-24T10:04:16.097Z,101259.00
2023-10-24T10:06:58.488Z,101254.00
2023-10-24T10:09:31.404Z,101253.00
2023-10-24T10:12:03.990Z,101263.00
2023-10-24T10:14:42.583Z,101273.00
2023-10-24T10:17:23.966Z,101269.00
2023-10-24T10:20:16.582Z,101269.00
2023-10-24T10:23:04.089Z,101265.00
2023-10-24T10:25:56.879Z,101269.00
2023-10-24T10:28:58.682Z,101269.00
2023-10-24T10:32:37.294Z,101266.00
2023-10-24T10:34:40.716Z,101262.00
2023-10-24T10:37:09.735Z,101272.00
2023-10-24T10:39:38.577Z,101267.00
2023-10-24T10:42:08.615Z,101268.00
2023-10-24T10:44:43.127Z,101261.00
2023-10-24T10:47:17.459Z,101268.00
2023-10-24T10:49:52.467Z,101261.00
2023-10-24T10:52:40.954Z,101270.00
2023-10-24T10:55:34.344Z,101269.00
2023-10-24T10:58:23.578Z,101272.00
2023-10-24T11:01:04.818Z,101280.00
2023-10-24T11:03:47.886Z,101283.00
2023-10-24T11:06:19.927Z,101260.00
2023-10-24T11:09:08.785Z,101265.00
2023-10-24T11:11:39.382Z,101280.00
2023-10-24T11:14:20.424Z,101282.00
2023-10-24T11:16:51.471Z,101281.00
2023-10-24T11:19:21.214Z,101281.00
2023-10-24T11:21:53.618Z,101289.00
2023-10-24T11:24:24.695Z,101289.00
2023-10-24T11:26:58.951Z,101280.00
2023-10-24T11:29:29.122Z,101282.00
2023-10-24T11:32:00.055Z,101279.00
2023-10-24T11:34:29.210Z,101286.00
2023-10-24T11:37:02.294Z,101279.00
2023-10-24T11:39:31.800Z,101279.00
2023-10-24T11:42:00.612Z,101281.00
2023-10-24T11:44:29.440Z,101287.00
2023-10-24T11:46:58.316Z,101287.00
2023-10-24T11:49:34.588Z,101296.00
2023-10-24T11:52:06.550Z,101302.00
2023-10-24T11:54:35.614Z,101296.00
2023-10-24T11:57:08.801Z,101304.00
2023-10-24T11:59:38.853Z,101291.00
2023-10-24T12:02:08.224Z,101301.00
2023-10-24T12:04:37.854Z,101298.00
2023-10-24T12:07:11.129Z,101302.00
2023-10-24T12:09:40.238Z,101300.00
2023-10-24T12:12:12.403Z,101306.00
2023-10-24T12:14:44.237Z,101306.00
2023-10-24T12:17:13.347Z,101310.00
2023-10-24T12:19:42.371Z,101316.00
2023-10-24T12:22:12.808Z,101313.00
2023-10-24T12:24:41.595Z,101312.00
2023-10-24T12:27:10.699Z,101318.00
2023-10-24T12:29:39.592Z,101327.00
2023-10-24T12:32:08.869Z,101320.00
2023-10-24T12:34:37.701Z,101321.00
2023-10-24T12:37:06.528Z,101317.00
2023-10-24T12:39:36.842Z,101310.00
2023-10-24T12:42:07.280Z,101325.00
2023-10-24T12:44:36.015Z,101316.00
2023-10-24T12:47:06.038Z,101306.00
2023-10-24T12:49:34.930Z,101316.00
2023-10-24T12:52:08.789Z,101314.00
2023-10-24T12:54:39.795Z,101322.00
2023-10-24T12:57:08.692Z,101320.00
2023-10-24T12:59:37.463Z,101321.00
2023-10-24T13:02:07.378Z,101313.00
2023-10-24T13:04:37.454Z,101323.00
2023-10-24T13:07:07.238Z,101326.00
2023-10-24T13:09:38.327Z,101327.00
2023-10-24T13:12:13.213Z,101325.00
2023-10-24T13:14:41.999Z,101321.00
2023-10-24T13:19:42.794Z,101330.00
2023-10-24T13:22:11.998Z,101316.00
2023-10-24T13:24:40.961Z,101315.00
2023-10-24T13:27:11.205Z,101316.00
2023-10-24T13:29:40.178Z,101314.00
2023-10-24T13:32:09.434Z,101314.00
2023-10-24T13:37:10.146Z,101321.00
2023-10-24T13:39:39.216Z,101333.00
2023-10-24T13:42:08.602Z,101327.00
2023-10-24T13:44:38.994Z,101327.00
2023-10-24T13:47:23.074Z,101322.00
2023-10-24T13:49:53.338Z,101342.00
2023-10-24T13:52:22.140Z,101340.00
2023-10-24T13:54:51.013Z,101336.00
2023-10-24T13:57:20.242Z,101335.00
2023-10-24T13:59:50.753Z,101338.00
2023-10-24T14:02:19.709Z,101341.00
2023-10-24T14:04:48.579Z,101328.00
2023-10-24T14:07:17.391Z,101341.00
2023-10-24T14:09:46.215Z,101344.00
2023-10-24T14:12:14.921Z,101355.00
2023-10-24T14:14:44.441Z,101347.00
2023-10-24T14:17:14.768Z,101341.00
2023-10-24T14:19:43.904Z,101343.00
2023-10-24T14:22:12.815Z,101347.00
2023-10-24T14:24:41.538Z,101336.00
2023-10-24T14:27:10.355Z,101351.00
2023-10-24T14:29:39.273Z,101356.00
2023-10-24T14:32:08.505Z,101349.00
2023-10-24T14:34:38.743Z,101362.00
2023-10-24T14:37:07.668Z,101355.00
2023-10-24T14:39:36.588Z,101360.00
2023-10-24T14:42:05.844Z,101349.00
2023-10-24T14:44:34.668Z,101360.00
2023-10-24T14:47:04.581Z,101359.00
2023-10-24T14:49:33.762Z,101352.00
2023-10-24T14:52:03.887Z,101349.00
2023-10-24T14:54:32.928Z,101337.00
2023-10-24T14:57:01.948Z,101345.00
2023-10-24T14:59:30.744Z,101344.00
2023-10-24T15:01:59.606Z,101356.00
2023-10-24T15:04:28.593Z,101349.00
2023-10-24T15:06:57.358Z,101348.00
2023-10-24T15:09:28.492Z,101346.00
2023-10-24T15:11:57.425Z,101356.00
2023-10-24T15:14:26.688Z,101356.00
2023-10-24T15:16:56.186Z,101360.00
2023-10-24T15:19:25.216Z,101360.00
2023-10-24T15:22:01.967Z,101362.00
2023-10-24T15:24:33.980Z,101363.00
2023-10-24T15:27:05.206Z,101372.00
2023-10-24T15:29:38.060Z,101369.00
2023-10-24T15:32:11.818Z,101367.00
2023-10-24T15:34:41.082Z,101365.00
2023-10-24T15:37:10.796Z,101376.00
2023-10-24T15:39:43.738Z,101367.00
2023-10-24T15:42:13.673Z,101375.00
2023-10-24T15:44:42.781Z,101379.00
2023-10-24T15:47:11.928Z,101371.00
2023-10-24T15:49:41.098Z,101364.00
2023-10-24T15:52:10.608Z,101372.00
2023-10-24T15:54:39.458Z,101380.00
2023-10-24T15:57:10.887Z,101377.00
2023-10-24T15:59:39.921Z,101381.00
2023-10-24T16:02:08.880Z,101376.00
2023-10-24T16:04:37.791Z,101373.00
2023-10-24T16:07:06.663Z,101372.00
2023-10-24T16:09:35.511Z,101368.00
2023-10-24T16:12:04.305Z,101362.00
2023-10-24T16:14:34.562Z,101371.00
2023-10-24T16:17:07.847Z,101361.00
2023-10-24T16:19:38.242Z,101367.00
2023-10-24T16:22:07.553Z,101359.00
2023-10-24T16:24:36.534Z,101360.00
2023-10-24T16:27:08.242Z,101364.00
2023-10-24T16:29:38.409Z,101362.00
2023-10-24T16:32:07.567Z,101368.00
2023-10-24T16:34:37.435Z,101368.00
2023-10-24T16:37:06.634Z,101365.00
2023-10-24T16:39:35.492Z,101373.00
2023-10-24T16:42:04.409Z,101377.00
2023-10-24T16:44:34.709Z,101362.00
2023-10-24T16:47:05.341Z,101376.00
2023-10-24T16:49:34.145Z,101374.00
2023-10-24T16:52:03.025Z,101383.00
2023-10-24T16:54:31.862Z,101384.00
2023-10-24T16:57:02.384Z,101380.00
2023-10-24T16:59:31.243Z,101382.00
2023-10-24T17:02:00.314Z,101377.00
2023-10-24T17:04:30.821Z,101380.00
2023-10-24T17:07:01.982Z,101389.00
2023-10-24T17:09:35.268Z,101384.00
2023-10-24T17:12:04.148Z,101389.00
2023-10-24T17:14:33.143Z,101385.00
2023-10-24T17:17:01.943Z,101386.00
2023-10-24T17:19:32.313Z,101389.00
2023-10-24T17:22:01.199Z,101386.00
2023-10-24T17:24:30.586Z,101394.00
2023-10-24T17:26:59.383Z,101395.00
2023-10-24T17:29:28.118Z,101397.00
2023-10-24T17:31:56.985Z,101396.00
2023-10-24T17:34:25.922Z,101393.00
2023-10-24T17:36:56.087Z,101395.00
2023-10-24T17:39:29.422Z,101400.00
2023-10-24T17:42:01.843Z,101399.00
2023-10-24T17:44:34.316Z,101397.00
2023-10-24T17:47:03.556Z,101399.00
2023-10-24T17:49:32.583Z,101402.00
2023-10-24T17:52:02.841Z,101399.00
2023-10-24T17:54:31.623Z,101409.00
2023-10-24T17:57:00.439Z,101405.00
2023-10-24T17:59:30.013Z,101403.00
2023-10-24T18:01:58.971Z,101401.00
2023-10-24T18:04:27.792Z,101413.00
2023-10-24T18:07:01.472Z,101414.00
2023-10-24T18:09:36.553Z,101418.00
2023-10-24T18:12:07.204Z,101428.00
2023-10-24T18:14:36.186Z,101423.00
2023-10-24T18:17:05.145Z,101432.00
2023-10-24T18:19:33.967Z,101421.00
2023-10-24T18:22:02.852Z,101434.00
2023-10-24T18:24:31.679Z,101420.00
2023-10-24T18:27:01.914Z,101415.00
2023-10-24T18:29:31.088Z,101424.00
2023-10-24T18:31:59.947Z,101419.00
2023-10-24T18:34:28.763Z,101421.00
2023-10-24T18:36:57.870Z,101428.00
2023-10-24T18:39:27.010Z,101432.00
2023-10-24T18:41:55.896Z,101434.00
2023-10-24T18:44:26.098Z,101437.00
2023-10-24T18:46:54.860Z,101444.00
2023-10-24T18:49:23.718Z,101441.00
2023-10-24T18:51:52.511Z,101436.00
2023-10-24T18:54:21.338Z,101440.00
2023-10-24T18:56:51.380Z,101439.00
2023-10-24T18:59:21.662Z,101438.00
2023-10-24T19:01:52.024Z,101448.00
2023-10-24T19:04:21.014Z,101442.00
2023-10-24T19:06:50.083Z,101448.00
2023-10-24T19:09:18.873Z,101433.00
2023-10-24T19:11:48.522Z,101447.00
2023-10-24T19:14:21.249Z,101442.00
2023-10-24T19:16:52.775Z,101443.00
2023-10-24T19:19:22.268Z,101442.00
2023-10-24T19:21:54.908Z,101443.00
2023-10-24T19:24:26.561Z,101454.00
2023-10-24T19:26:56.246Z,101456.00
2023-10-24T19:29:26.367Z,101450.00
2023-10-24T19:31:57.522Z,101456.00
2023-10-24T19:34:27.359Z,101449.00
2023-10-24T19:36:57.317Z,101456.00
2023-10-24T19:39:27.036Z,101463.00
2023-10-24T19:41:57.971Z,101461.00
2023-10-24T19:44:27.706Z,101461.00
2023-10-24T19:47:04.781Z,101464.00
2023-10-24T19:49:35.429Z,101463.00
2023-10-24T19:52:09.081Z,101474.00
2023-10-24T19:54:38.944Z,101471.00
2023-10-24T19:57:10.912Z,101471.00
2023-10-24T19:59:41.583Z,101464.00
2023-10-24T20:02:13.057Z,101472.00
2023-10-24T20:04:48.209Z,101470.00
2023-10-24T20:07:20.051Z,101470.00
2023-10-24T20:11:34.247Z,101469.00
2023-10-24T20:12:43.201Z,101479.00
2023-10-24T20:15:14.123Z,101480.00
2023-10-24T20:17:45.975Z,101464.00
2023-10-24T20:20:15.963Z,101476.00
2023-10-24T20:22:45.943Z,101464.00
2023-10-24T20:25:15.093Z,101467.00
2023-10-24T20:27:44.251Z,101470.00
2023-10-24T20:30:13.848Z,101468.00
2023-10-24T20:32:44.143Z,101479.00
2023-10-24T20:35:16.300Z,101477.00
2023-10-24T20:37:45.247Z,101476.00
2023-10-24T20:40:14.779Z,101475.00
2023-10-24T20:42:43.687Z,101478.00
2023-10-24T20:45:12.923Z,101474.00
2023-10-24T20:47:43.801Z,101476.00
2023-10-24T20:50:13.453Z,101478.00
2023-10-24T20:52:42.210Z,101478.00
2023-10-24T20:55:11.299Z,101482.00
2023-10-24T20:57:40.261Z,101475.00
2023-10-24T21:00:10.686Z,101478.00
2023-10-24T21:02:39.606Z,101477.00
2023-10-24T21:05:10.309Z,101476.00
2023-10-24T21:07:39.122Z,101472.00
2023-10-24T21:10:10.332Z,101472.00
2023-10-24T21:12:41.509Z,101478.00
2023-10-24T21:15:12.200Z,101475.00
2023-10-24T21:17:41.107Z,101468.00
2023-10-24T21:20:12.779Z,101460.00
2023-10-24T21:22:41.697Z,101472.00
2023-10-24T21:25:11.963Z,101463.00
2023-10-24T21:27:41.075Z,101475.00
2023-10-24T21:30:10.799Z,101472.00
2023-10-24T21:32:39.613Z,101477.00
2023-10-24T21:35:10.585Z,101485.00
2023-10-24T21:37:39.282Z,101477.00
2023-10-24T21:40:12.236Z,101479.00
2023-10-24T21:42:41.284Z,101489.00
2023-10-24T21:45:10.881Z,101481.00
2023-10-24T21:47:39.902Z,101481.00
2023-10-24T21:50:11.182Z,101493.00
2023-10-24T21:52:39.961Z,101486.00
2023-10-24T21:55:09.496Z,101491.00
2023-10-24T21:57:38.518Z,101491.00
2023-10-24T22:00:10.230Z,101482.00
2023-10-24T22:02:41.685Z,101488.00
2023-10-24T22:05:12.551Z,101488.00
2023-10-24T22:07:41.766Z,101485.00
2023-10-24T22:10:11.294Z,101485.00
2023-10-24T22:12:40.809Z,101481.00
2023-10-24T22:15:10.857Z,101485.00
2023-10-24T22:17:40.051Z,101485.00
2023-10-24T22:20:12.089Z,101492.00
2023-10-24T22:22:41.345Z,101492.00
2023-10-24T22:25:12.028Z,101489.00
2023-10-24T22:27:45.300Z,101493.00
2023-10-24T22:30:20.050Z,101491.00
2023-10-24T22:32:48.745Z,101491.00
2023-10-24T22:35:19.291Z,101477.00
2023-10-24T22:37:48.136Z,101486.00
2023-10-24T22:40:18.305Z,101476.00
2023-10-24T22:42:48.266Z,101485.00
2023-10-24T22:45:17.114Z,101486.00
2023-10-24T22:47:48.971Z,101485.00
2023-10-24T22:50:21.915Z,101490.00
2023-10-24T22:52:52.830Z,101479.00
2023-10-24T22:55:21.868Z,101476.00
2023-10-24T22:57:50.770Z,101478.00
2023-10-24T23:00:20.195Z,101472.00
2023-10-24T23:02:49.494Z,101470.00
2023-10-24T23:05:20.129Z,101469.00
2023-10-24T23:07:49.157Z,101471.00
2023-10-24T23:10:18.193Z,101462.00
2023-10-24T23:12:48.225Z,101464.00
2023-10-24T23:15:17.523Z,101468.00
2023-10-24T23:17:46.892Z,101468.00
2023-10-24T23:20:15.729Z,101474.00
2023-10-24T23:22:46.001Z,101467.00
2023-10-24T23:25:14.869Z,101468.00
2023-10-24T23:27:43.683Z,101463.00
2023-10-24T23:30:13.694Z,101473.00
2023-10-24T23:32:43.109Z,101467.00
2023-10-24T23:35:11.952Z,101466.00
2023-10-24T23:37:40.657Z,101475.00
2023-10-24T23:40:12.625Z,101478.00
2023-10-24T23:42:41.573Z,101466.00
2023-10-24T23:45:11.922Z,101479.00
2023-10-24T23:47:43.642Z,101461.00
2023-10-24T23:50:12.750Z,101474.00
2023-10-24T23:52:43.095Z,101466.00
2023-10-24T23:55:13.553Z,101466.00
2023-10-24T23:57:42.407Z,101464.00
